Haviland, Ohio
Current Conditions -  °F | °C
As of 4:53 AM on Monday 26 Jan 2015 (Local Time) from KDFI Reporting Station
Clear Clear  
Wind Chill:   Ceiling: Unl
Heat Index: 14°   Visibility: 10mi
Dew Point:   Wind: 7mph
Humidity: 64%   Direction: 360°N
Pressure: 29.92"   Gusts: NA
Location:  41.02°N, 84.58°W
Report Text: KDFI 260953Z AUTO 36006KT 10SM CLR M10/M16 A2992 RMK AO2 SLP144 T11001156
Loading
Personal Weather Stations






























Interactive Weather Map New forecast layout! Learn more

10-Day Weather Forecast

Advertisements
Track Severe Weather on mobile